EBLG/LGG METAR and TAF weather

Enter ICAO airport designator
Station Type Date Time Source
EBLG METAR 2021/09/23 17:20 UTC NOAA

EBLG 231720Z 27007KT 9999 SCT030 BKN037 18/12 Q1018 NOSIG


Station Type Date Time Source
EBLG Decoded METAR 2021/09/23 17:20 UTC NOAA

Bierset, Belgium (EBLG) 50-39N 005-27E 178M
Sep 23, 2021 - 01:20 PM EDT / 2021.09.23 1720 UTC
Wind: from the W (270 degrees) at 8 MPH (7 KT):0
Visibility: greater than 7 mile(s):0
Sky conditions: mostly cloudy
Temperature: 64 F (18 C)
Dew Point: 53 F (12 C)
Relative Humidity: 67%
Pressure (altimeter): 30.06 in. Hg (1018 hPa)
ob: EBLG 231720Z 27007KT 9999 SCT030 BKN037 18/12 Q1018 NOSIG
cycle: 17

Station Type Date Time Source
EBLG TAF 2021/09/23 18:27 UTC NOAA

TAF EBLG 231710Z 2318/2424 25007KT 9999 BKN035
TEMPO 2323/2410 BKN006 BKN035 PROB30
TEMPO 2402/2408 4000 BR

Example: see airport list